sensor_id;sensor_type;location;lat;lon;timestamp;P1;durP1;ratioP1;P2;durP2;ratioP2
25331;SDS011;13284;52.748;13.452;2022-08-19T00:00:21;11.40;;;10.23;;
25331;SDS011;13284;52.748;13.452;2022-08-19T00:02:46;11.80;;;10.70;;
25331;SDS011;13284;52.748;13.452;2022-08-19T00:05:12;9.63;;;8.73;;
25331;SDS011;13284;52.748;13.452;2022-08-19T00:07:40;10.50;;;9.30;;
25331;SDS011;13284;52.748;13.452;2022-08-19T00:10:11;11.17;;;10.10;;
25331;SDS011;13284;52.748;13.452;2022-08-19T00:12:39;10.00;;;9.10;;
25331;SDS011;13284;52.748;13.452;2022-08-19T00:15:05;10.37;;;9.37;;
25331;SDS011;13284;52.748;13.452;2022-08-19T00:17:35;10.80;;;9.80;;
25331;SDS011;13284;52.748;13.452;2022-08-19T00:20:01;10.77;;;9.77;;
25331;SDS011;13284;52.748;13.452;2022-08-19T00:22:27;10.10;;;9.20;;
25331;SDS011;13284;52.748;13.452;2022-08-19T00:24:53;11.10;;;10.07;;
25331;SDS011;13284;52.748;13.452;2022-08-19T00:27:18;10.43;;;9.10;;
25331;SDS011;13284;52.748;13.452;2022-08-19T00:29:44;11.00;;;10.00;;
25331;SDS011;13284;52.748;13.452;2022-08-19T00:32:09;11.37;;;10.17;;
25331;SDS011;13284;52.748;13.452;2022-08-19T00:34:35;10.63;;;9.63;;
25331;SDS011;13284;52.748;13.452;2022-08-19T00:37:01;11.37;;;10.27;;
25331;SDS011;13284;52.748;13.452;2022-08-19T00:39:26;11.37;;;10.17;;
25331;SDS011;13284;52.748;13.452;2022-08-19T00:41:52;10.20;;;9.30;;
25331;SDS011;13284;52.748;13.452;2022-08-19T00:44:22;11.77;;;10.70;;
25331;SDS011;13284;52.748;13.452;2022-08-19T00:46:50;11.87;;;10.60;;
25331;SDS011;13284;52.748;13.452;2022-08-19T00:49:19;11.10;;;10.13;;
25331;SDS011;13284;52.748;13.452;2022-08-19T00:51:50;12.17;;;10.97;;
25331;SDS011;13284;52.748;13.452;2022-08-19T00:54:21;10.80;;;9.77;;
25331;SDS011;13284;52.748;13.452;2022-08-19T00:56:47;12.07;;;10.87;;
25331;SDS011;13284;52.748;13.452;2022-08-19T00:59:15;12.03;;;10.90;;
25331;SDS011;13284;52.748;13.452;2022-08-19T01:05:05;10.40;;;8.73;;
25331;SDS011;13284;52.748;13.452;2022-08-19T01:07:33;10.93;;;9.93;;
25331;SDS011;13284;52.748;13.452;2022-08-19T01:09:59;11.23;;;10.20;;
25331;SDS011;13284;52.748;13.452;2022-08-19T01:12:26;11.33;;;10.23;;
25331;SDS011;13284;52.748;13.452;2022-08-19T01:14:51;13.27;;;11.97;;
25331;SDS011;13284;52.748;13.452;2022-08-19T01:17:18;12.90;;;11.60;;
25331;SDS011;13284;52.748;13.452;2022-08-19T01:19:46;12.07;;;10.90;;
25331;SDS011;13284;52.748;13.452;2022-08-19T01:22:19;11.10;;;10.00;;
25331;SDS011;13284;52.748;13.452;2022-08-19T01:25:00;12.50;;;11.20;;
25331;SDS011;13284;52.748;13.452;2022-08-19T01:27:26;10.77;;;9.77;;
25331;SDS011;13284;52.748;13.452;2022-08-19T01:30:02;10.30;;;9.30;;
25331;SDS011;13284;52.748;13.452;2022-08-19T01:32:30;11.33;;;10.30;;
25331;SDS011;13284;52.748;13.452;2022-08-19T01:34:56;11.40;;;10.20;;
25331;SDS011;13284;52.748;13.452;2022-08-19T01:37:21;11.77;;;10.63;;
25331;SDS011;13284;52.748;13.452;2022-08-19T01:39:47;11.90;;;10.67;;
25331;SDS011;13284;52.748;13.452;2022-08-19T01:42:12;11.97;;;10.97;;
25331;SDS011;13284;52.748;13.452;2022-08-19T01:44:39;12.10;;;10.90;;
25331;SDS011;13284;52.748;13.452;2022-08-19T01:47:08;11.77;;;10.63;;
25331;SDS011;13284;52.748;13.452;2022-08-19T01:49:34;12.83;;;11.50;;
25331;SDS011;13284;52.748;13.452;2022-08-19T01:52:00;12.60;;;11.40;;
25331;SDS011;13284;52.748;13.452;2022-08-19T01:54:29;13.93;;;11.20;;
25331;SDS011;13284;52.748;13.452;2022-08-19T01:56:56;11.83;;;10.73;;
25331;SDS011;13284;52.748;13.452;2022-08-19T01:59:25;11.03;;;10.03;;
25331;SDS011;13284;52.748;13.452;2022-08-19T02:01:52;12.43;;;11.33;;
25331;SDS011;13284;52.748;13.452;2022-08-19T02:04:17;12.80;;;11.47;;
25331;SDS011;13284;52.748;13.452;2022-08-19T02:06:43;11.77;;;10.60;;
25331;SDS011;13284;52.748;13.452;2022-08-19T02:09:09;12.23;;;11.13;;
25331;SDS011;13284;52.748;13.452;2022-08-19T02:11:35;12.63;;;11.43;;
25331;SDS011;13284;52.748;13.452;2022-08-19T02:14:03;11.63;;;10.43;;
25331;SDS011;13284;52.748;13.452;2022-08-19T02:16:30;12.80;;;11.60;;
25331;SDS011;13284;52.748;13.452;2022-08-19T02:18:56;12.03;;;10.83;;
25331;SDS011;13284;52.748;13.452;2022-08-19T02:21:22;12.40;;;10.87;;
25331;SDS011;13284;52.748;13.452;2022-08-19T02:23:48;12.60;;;11.33;;
25331;SDS011;13284;52.748;13.452;2022-08-19T02:26:15;13.00;;;11.80;;
25331;SDS011;13284;52.748;13.452;2022-08-19T02:28:41;11.93;;;10.83;;
25331;SDS011;13284;52.748;13.452;2022-08-19T02:31:11;12.20;;;11.00;;
25331;SDS011;13284;52.748;13.452;2022-08-19T02:33:42;12.30;;;11.20;;
25331;SDS011;13284;52.748;13.452;2022-08-19T02:36:09;12.03;;;10.83;;
25331;SDS011;13284;52.748;13.452;2022-08-19T02:38:36;12.90;;;11.70;;
25331;SDS011;13284;52.748;13.452;2022-08-19T02:41:13;13.17;;;11.87;;
25331;SDS011;13284;52.748;13.452;2022-08-19T02:43:41;13.03;;;11.63;;
25331;SDS011;13284;52.748;13.452;2022-08-19T02:46:20;12.50;;;11.30;;
25331;SDS011;13284;52.748;13.452;2022-08-19T02:48:48;13.00;;;11.80;;
25331;SDS011;13284;52.748;13.452;2022-08-19T02:51:16;13.33;;;12.03;;
25331;SDS011;13284;52.748;13.452;2022-08-19T02:53:46;13.80;;;12.27;;
25331;SDS011;13284;52.748;13.452;2022-08-19T02:56:12;13.47;;;12.20;;
25331;SDS011;13284;52.748;13.452;2022-08-19T02:58:37;13.23;;;11.90;;
25331;SDS011;13284;52.748;13.452;2022-08-19T03:01:03;13.17;;;11.87;;
25331;SDS011;13284;52.748;13.452;2022-08-19T03:03:29;14.77;;;11.93;;
25331;SDS011;13284;52.748;13.452;2022-08-19T03:06:11;13.00;;;11.70;;
25331;SDS011;13284;52.748;13.452;2022-08-19T03:08:39;13.40;;;12.20;;
25331;SDS011;13284;52.748;13.452;2022-08-19T03:11:10;14.37;;;13.07;;
25331;SDS011;13284;52.748;13.452;2022-08-19T03:13:48;13.40;;;12.10;;
25331;SDS011;13284;52.748;13.452;2022-08-19T03:16:15;14.40;;;12.87;;
25331;SDS011;13284;52.748;13.452;2022-08-19T03:18:41;14.03;;;12.23;;
25331;SDS011;13284;52.748;13.452;2022-08-19T03:21:07;13.80;;;12.00;;
25331;SDS011;13284;52.748;13.452;2022-08-19T03:23:54;13.10;;;11.70;;
25331;SDS011;13284;52.748;13.452;2022-08-19T03:26:19;12.73;;;11.53;;
25331;SDS011;13284;52.748;13.452;2022-08-19T03:28:44;14.27;;;12.80;;
25331;SDS011;13284;52.748;13.452;2022-08-19T03:31:14;15.00;;;13.10;;
25331;SDS011;13284;52.748;13.452;2022-08-19T03:33:41;14.27;;;12.90;;
25331;SDS011;13284;52.748;13.452;2022-08-19T03:36:09;14.00;;;12.50;;
25331;SDS011;13284;52.748;13.452;2022-08-19T03:38:37;13.63;;;12.20;;
25331;SDS011;13284;52.748;13.452;2022-08-19T03:41:10;12.80;;;11.60;;
25331;SDS011;13284;52.748;13.452;2022-08-19T03:43:38;11.77;;;10.57;;
25331;SDS011;13284;52.748;13.452;2022-08-19T03:46:07;13.63;;;12.33;;
25331;SDS011;13284;52.748;13.452;2022-08-19T03:48:37;13.87;;;12.57;;
25331;SDS011;13284;52.748;13.452;2022-08-19T03:51:04;13.93;;;12.43;;
25331;SDS011;13284;52.748;13.452;2022-08-19T03:53:31;13.80;;;11.43;;
25331;SDS011;13284;52.748;13.452;2022-08-19T03:55:58;16.60;;;11.50;;
25331;SDS011;13284;52.748;13.452;2022-08-19T03:58:25;13.03;;;11.63;;
25331;SDS011;13284;52.748;13.452;2022-08-19T04:00:53;13.20;;;10.77;;
25331;SDS011;13284;52.748;13.452;2022-08-19T04:03:20;12.83;;;11.53;;
25331;SDS011;13284;52.748;13.452;2022-08-19T04:05:46;12.50;;;10.50;;
25331;SDS011;13284;52.748;13.452;2022-08-19T04:08:12;13.37;;;12.10;;
25331;SDS011;13284;52.748;13.452;2022-08-19T04:10:45;13.73;;;11.53;;
25331;SDS011;13284;52.748;13.452;2022-08-19T04:13:11;14.23;;;12.63;;
25331;SDS011;13284;52.748;13.452;2022-08-19T04:15:40;12.27;;;11.10;;
25331;SDS011;13284;52.748;13.452;2022-08-19T04:18:10;12.87;;;11.67;;
25331;SDS011;13284;52.748;13.452;2022-08-19T04:20:40;15.20;;;13.27;;
25331;SDS011;13284;52.748;13.452;2022-08-19T04:23:07;14.00;;;12.70;;
25331;SDS011;13284;52.748;13.452;2022-08-19T04:25:40;13.03;;;11.37;;
25331;SDS011;13284;52.748;13.452;2022-08-19T04:28:07;13.97;;;12.60;;
25331;SDS011;13284;52.748;13.452;2022-08-19T04:30:38;13.83;;;12.43;;
25331;SDS011;13284;52.748;13.452;2022-08-19T04:33:09;14.47;;;12.97;;
25331;SDS011;13284;52.748;13.452;2022-08-19T04:35:40;14.77;;;13.13;;
25331;SDS011;13284;52.748;13.452;2022-08-19T04:38:07;12.70;;;11.43;;
25331;SDS011;13284;52.748;13.452;2022-08-19T04:40:38;12.60;;;10.33;;
25331;SDS011;13284;52.748;13.452;2022-08-19T04:43:24;13.43;;;11.60;;
25331;SDS011;13284;52.748;13.452;2022-08-19T04:45:50;13.87;;;12.53;;
25331;SDS011;13284;52.748;13.452;2022-08-19T04:48:16;12.90;;;11.70;;
25331;SDS011;13284;52.748;13.452;2022-08-19T04:50:43;14.10;;;12.03;;
25331;SDS011;13284;52.748;13.452;2022-08-19T04:53:09;12.80;;;11.57;;
25331;SDS011;13284;52.748;13.452;2022-08-19T04:55:38;12.47;;;11.27;;
25331;SDS011;13284;52.748;13.452;2022-08-19T04:58:05;13.57;;;12.20;;
25331;SDS011;13284;52.748;13.452;2022-08-19T05:00:31;12.87;;;11.53;;
25331;SDS011;13284;52.748;13.452;2022-08-19T05:02:56;13.60;;;12.30;;
25331;SDS011;13284;52.748;13.452;2022-08-19T05:05:22;13.60;;;12.20;;
25331;SDS011;13284;52.748;13.452;2022-08-19T05:07:47;13.30;;;11.93;;
25331;SDS011;13284;52.748;13.452;2022-08-19T05:10:13;13.23;;;11.93;;
25331;SDS011;13284;52.748;13.452;2022-08-19T05:12:38;13.67;;;12.27;;
25331;SDS011;13284;52.748;13.452;2022-08-19T05:15:04;16.07;;;12.97;;
25331;SDS011;13284;52.748;13.452;2022-08-19T05:17:31;13.90;;;12.50;;
25331;SDS011;13284;52.748;13.452;2022-08-19T05:19:57;12.47;;;10.80;;
25331;SDS011;13284;52.748;13.452;2022-08-19T05:22:42;13.40;;;12.00;;
25331;SDS011;13284;52.748;13.452;2022-08-19T05:25:10;13.77;;;12.40;;
25331;SDS011;13284;52.748;13.452;2022-08-19T05:27:38;13.03;;;11.47;;
25331;SDS011;13284;52.748;13.452;2022-08-19T05:30:04;14.20;;;11.67;;
25331;SDS011;13284;52.748;13.452;2022-08-19T05:32:30;15.97;;;13.00;;
25331;SDS011;13284;52.748;13.452;2022-08-19T05:34:56;14.00;;;11.30;;
25331;SDS011;13284;52.748;13.452;2022-08-19T05:37:22;13.43;;;12.13;;
25331;SDS011;13284;52.748;13.452;2022-08-19T05:39:48;14.77;;;13.37;;
25331;SDS011;13284;52.748;13.452;2022-08-19T05:42:14;13.77;;;12.27;;
25331;SDS011;13284;52.748;13.452;2022-08-19T05:44:41;14.30;;;12.80;;
25331;SDS011;13284;52.748;13.452;2022-08-19T05:47:09;14.30;;;12.90;;
25331;SDS011;13284;52.748;13.452;2022-08-19T05:49:36;15.13;;;13.63;;
25331;SDS011;13284;52.748;13.452;2022-08-19T05:52:03;13.80;;;12.40;;
25331;SDS011;13284;52.748;13.452;2022-08-19T05:54:30;14.63;;;12.93;;
25331;SDS011;13284;52.748;13.452;2022-08-19T05:56:56;14.37;;;12.97;;
25331;SDS011;13284;52.748;13.452;2022-08-19T05:59:22;14.57;;;13.07;;
25331;SDS011;13284;52.748;13.452;2022-08-19T06:01:48;15.20;;;13.13;;
25331;SDS011;13284;52.748;13.452;2022-08-19T06:04:16;15.70;;;14.00;;
25331;SDS011;13284;52.748;13.452;2022-08-19T06:06:43;16.70;;;15.00;;
25331;SDS011;13284;52.748;13.452;2022-08-19T06:09:11;15.30;;;13.70;;
25331;SDS011;13284;52.748;13.452;2022-08-19T06:14:03;17.43;;;15.73;;
25331;SDS011;13284;52.748;13.452;2022-08-19T06:16:33;16.97;;;15.30;;
25331;SDS011;13284;52.748;13.452;2022-08-19T06:19:04;16.90;;;15.17;;
25331;SDS011;13284;52.748;13.452;2022-08-19T06:21:32;18.90;;;17.00;;
25331;SDS011;13284;52.748;13.452;2022-08-19T06:23:59;17.53;;;15.73;;
25331;SDS011;13284;52.748;13.452;2022-08-19T06:26:25;16.50;;;14.80;;
25331;SDS011;13284;52.748;13.452;2022-08-19T06:28:51;20.13;;;17.90;;
25331;SDS011;13284;52.748;13.452;2022-08-19T06:31:18;18.77;;;16.90;;
25331;SDS011;13284;52.748;13.452;2022-08-19T06:33:46;19.50;;;17.50;;
25331;SDS011;13284;52.748;13.452;2022-08-19T06:36:17;20.10;;;18.00;;
25331;SDS011;13284;52.748;13.452;2022-08-19T06:38:56;19.53;;;17.63;;
25331;SDS011;13284;52.748;13.452;2022-08-19T06:41:22;20.73;;;18.67;;
25331;SDS011;13284;52.748;13.452;2022-08-19T06:43:49;19.90;;;17.80;;
25331;SDS011;13284;52.748;13.452;2022-08-19T06:46:15;19.73;;;17.83;;
25331;SDS011;13284;52.748;13.452;2022-08-19T06:48:42;21.93;;;19.57;;
25331;SDS011;13284;52.748;13.452;2022-08-19T06:51:07;20.43;;;18.23;;
25331;SDS011;13284;52.748;13.452;2022-08-19T06:53:33;20.53;;;18.37;;
25331;SDS011;13284;52.748;13.452;2022-08-19T06:55:59;21.27;;;19.27;;
25331;SDS011;13284;52.748;13.452;2022-08-19T06:58:27;18.53;;;16.83;;
25331;SDS011;13284;52.748;13.452;2022-08-19T07:00:57;22.00;;;19.80;;
25331;SDS011;13284;52.748;13.452;2022-08-19T07:03:30;23.20;;;20.80;;
25331;SDS011;13284;52.748;13.452;2022-08-19T07:05:57;19.73;;;17.83;;
25331;SDS011;13284;52.748;13.452;2022-08-19T07:08:27;20.07;;;18.07;;
25331;SDS011;13284;52.748;13.452;2022-08-19T07:10:52;19.93;;;17.93;;
25331;SDS011;13284;52.748;13.452;2022-08-19T07:13:18;21.20;;;19.10;;
25331;SDS011;13284;52.748;13.452;2022-08-19T07:15:44;21.47;;;19.37;;
25331;SDS011;13284;52.748;13.452;2022-08-19T07:18:11;20.70;;;18.67;;
25331;SDS011;13284;52.748;13.452;2022-08-19T07:20:37;20.53;;;18.50;;
25331;SDS011;13284;52.748;13.452;2022-08-19T07:23:03;21.33;;;19.20;;
25331;SDS011;13284;52.748;13.452;2022-08-19T07:25:28;19.73;;;17.73;;
25331;SDS011;13284;52.748;13.452;2022-08-19T07:27:54;19.03;;;17.13;;
25331;SDS011;13284;52.748;13.452;2022-08-19T07:30:19;18.73;;;16.93;;
25331;SDS011;13284;52.748;13.452;2022-08-19T07:32:45;18.77;;;16.70;;
25331;SDS011;13284;52.748;13.452;2022-08-19T07:35:10;20.30;;;18.27;;
25331;SDS011;13284;52.748;13.452;2022-08-19T07:37:36;18.97;;;17.07;;
25331;SDS011;13284;52.748;13.452;2022-08-19T07:40:05;19.00;;;17.10;;
25331;SDS011;13284;52.748;13.452;2022-08-19T07:42:32;19.30;;;17.37;;
25331;SDS011;13284;52.748;13.452;2022-08-19T07:44:58;19.27;;;17.37;;
25331;SDS011;13284;52.748;13.452;2022-08-19T07:47:23;19.20;;;17.20;;
25331;SDS011;13284;52.748;13.452;2022-08-19T07:49:49;21.77;;;18.93;;
25331;SDS011;13284;52.748;13.452;2022-08-19T07:52:14;20.47;;;18.47;;
25331;SDS011;13284;52.748;13.452;2022-08-19T07:54:41;20.00;;;17.37;;
25331;SDS011;13284;52.748;13.452;2022-08-19T07:57:07;19.40;;;17.40;;
25331;SDS011;13284;52.748;13.452;2022-08-19T07:59:33;17.70;;;16.10;;
25331;SDS011;13284;52.748;13.452;2022-08-19T08:02:00;18.83;;;17.03;;
25331;SDS011;13284;52.748;13.452;2022-08-19T08:04:26;18.07;;;16.37;;
25331;SDS011;13284;52.748;13.452;2022-08-19T08:07:10;18.17;;;16.40;;
25331;SDS011;13284;52.748;13.452;2022-08-19T08:09:54;18.40;;;16.70;;
25331;SDS011;13284;52.748;13.452;2022-08-19T08:12:25;20.03;;;16.10;;
25331;SDS011;13284;52.748;13.452;2022-08-19T08:14:54;18.53;;;16.90;;
25331;SDS011;13284;52.748;13.452;2022-08-19T08:17:23;17.27;;;15.63;;
25331;SDS011;13284;52.748;13.452;2022-08-19T08:19:50;16.80;;;15.10;;
25331;SDS011;13284;52.748;13.452;2022-08-19T08:22:19;18.00;;;16.10;;
25331;SDS011;13284;52.748;13.452;2022-08-19T08:25:10;16.30;;;14.80;;
25331;SDS011;13284;52.748;13.452;2022-08-19T08:27:40;18.73;;;16.93;;
25331;SDS011;13284;52.748;13.452;2022-08-19T08:30:10;17.40;;;15.77;;
25331;SDS011;13284;52.748;13.452;2022-08-19T08:32:38;17.60;;;15.93;;
25331;SDS011;13284;52.748;13.452;2022-08-19T08:35:06;16.97;;;15.27;;
25331;SDS011;13284;52.748;13.452;2022-08-19T08:37:34;15.83;;;14.23;;
25331;SDS011;13284;52.748;13.452;2022-08-19T08:40:02;17.77;;;16.07;;
25331;SDS011;13284;52.748;13.452;2022-08-19T08:42:36;16.80;;;15.20;;
25331;SDS011;13284;52.748;13.452;2022-08-19T08:45:10;15.90;;;14.40;;
25331;SDS011;13284;52.748;13.452;2022-08-19T08:47:41;15.13;;;13.73;;
25331;SDS011;13284;52.748;13.452;2022-08-19T08:50:15;16.57;;;14.90;;
25331;SDS011;13284;52.748;13.452;2022-08-19T08:52:46;16.50;;;14.93;;
25331;SDS011;13284;52.748;13.452;2022-08-19T08:55:17;15.57;;;14.07;;
25331;SDS011;13284;52.748;13.452;2022-08-19T08:57:52;15.87;;;14.37;;
25331;SDS011;13284;52.748;13.452;2022-08-19T09:00:25;15.10;;;13.60;;
25331;SDS011;13284;52.748;13.452;2022-08-19T09:02:57;16.40;;;14.70;;
25331;SDS011;13284;52.748;13.452;2022-08-19T09:05:26;16.13;;;14.63;;
25331;SDS011;13284;52.748;13.452;2022-08-19T09:08:16;16.10;;;14.50;;
25331;SDS011;13284;52.748;13.452;2022-08-19T09:11:06;12.67;;;11.50;;
25331;SDS011;13284;52.748;13.452;2022-08-19T09:16:28;15.07;;;13.53;;
25331;SDS011;13284;52.748;13.452;2022-08-19T09:18:57;16.07;;;14.57;;
25331;SDS011;13284;52.748;13.452;2022-08-19T09:21:26;14.77;;;13.37;;
25331;SDS011;13284;52.748;13.452;2022-08-19T09:23:52;14.80;;;13.40;;
25331;SDS011;13284;52.748;13.452;2022-08-19T09:26:19;15.57;;;13.97;;
25331;SDS011;13284;52.748;13.452;2022-08-19T09:28:47;16.10;;;14.57;;
25331;SDS011;13284;52.748;13.452;2022-08-19T09:31:15;15.60;;;14.20;;
25331;SDS011;13284;52.748;13.452;2022-08-19T09:33:44;13.43;;;12.23;;
25331;SDS011;13284;52.748;13.452;2022-08-19T09:36:11;14.03;;;12.83;;
25331;SDS011;13284;52.748;13.452;2022-08-19T09:38:38;15.10;;;13.50;;
25331;SDS011;13284;52.748;13.452;2022-08-19T09:41:09;15.00;;;13.40;;
25331;SDS011;13284;52.748;13.452;2022-08-19T09:43:37;14.13;;;12.80;;
25331;SDS011;13284;52.748;13.452;2022-08-19T09:46:03;14.87;;;13.47;;
25331;SDS011;13284;52.748;13.452;2022-08-19T09:48:31;14.87;;;13.57;;
25331;SDS011;13284;52.748;13.452;2022-08-19T09:51:04;14.57;;;13.13;;
25331;SDS011;13284;52.748;13.452;2022-08-19T09:53:31;14.50;;;13.20;;
25331;SDS011;13284;52.748;13.452;2022-08-19T09:55:57;13.90;;;12.70;;
25331;SDS011;13284;52.748;13.452;2022-08-19T09:58:22;14.10;;;12.80;;
25331;SDS011;13284;52.748;13.452;2022-08-19T10:00:52;13.47;;;12.23;;
25331;SDS011;13284;52.748;13.452;2022-08-19T10:03:21;14.50;;;13.10;;
25331;SDS011;13284;52.748;13.452;2022-08-19T10:05:48;13.40;;;12.20;;
25331;SDS011;13284;52.748;13.452;2022-08-19T10:08:35;12.77;;;11.67;;
25331;SDS011;13284;52.748;13.452;2022-08-19T10:11:01;13.47;;;12.27;;
25331;SDS011;13284;52.748;13.452;2022-08-19T10:13:29;14.10;;;12.80;;
25331;SDS011;13284;52.748;13.452;2022-08-19T10:16:01;14.40;;;13.10;;
25331;SDS011;13284;52.748;13.452;2022-08-19T10:18:30;14.43;;;13.13;;
25331;SDS011;13284;52.748;13.452;2022-08-19T10:21:03;12.83;;;11.63;;
25331;SDS011;13284;52.748;13.452;2022-08-19T10:23:35;14.03;;;12.73;;
25331;SDS011;13284;52.748;13.452;2022-08-19T10:26:01;12.40;;;11.20;;
25331;SDS011;13284;52.748;13.452;2022-08-19T10:28:30;14.33;;;12.97;;
25331;SDS011;13284;52.748;13.452;2022-08-19T10:31:06;12.80;;;11.60;;
25331;SDS011;13284;52.748;13.452;2022-08-19T10:33:34;12.90;;;11.77;;
25331;SDS011;13284;52.748;13.452;2022-08-19T10:36:04;13.87;;;12.77;;
25331;SDS011;13284;52.748;13.452;2022-08-19T10:38:32;12.90;;;11.63;;
25331;SDS011;13284;52.748;13.452;2022-08-19T10:41:05;13.33;;;12.13;;
25331;SDS011;13284;52.748;13.452;2022-08-19T10:43:34;13.40;;;12.30;;
25331;SDS011;13284;52.748;13.452;2022-08-19T10:46:07;13.70;;;12.30;;
25331;SDS011;13284;52.748;13.452;2022-08-19T10:48:33;14.03;;;12.77;;
25331;SDS011;13284;52.748;13.452;2022-08-19T10:50:59;13.20;;;12.00;;
25331;SDS011;13284;52.748;13.452;2022-08-19T10:53:46;12.60;;;11.53;;
25331;SDS011;13284;52.748;13.452;2022-08-19T10:56:32;13.20;;;12.00;;
25331;SDS011;13284;52.748;13.452;2022-08-19T10:59:16;13.47;;;12.27;;
25331;SDS011;13284;52.748;13.452;2022-08-19T11:01:46;14.03;;;12.57;;
25331;SDS011;13284;52.748;13.452;2022-08-19T11:04:14;13.57;;;12.47;;
25331;SDS011;13284;52.748;13.452;2022-08-19T11:06:43;14.33;;;13.13;;
25331;SDS011;13284;52.748;13.452;2022-08-19T11:09:12;14.50;;;13.00;;
25331;SDS011;13284;52.748;13.452;2022-08-19T11:11:40;12.77;;;11.47;;
25331;SDS011;13284;52.748;13.452;2022-08-19T11:14:13;13.07;;;12.00;;
25331;SDS011;13284;52.748;13.452;2022-08-19T11:16:42;13.73;;;12.47;;
25331;SDS011;13284;52.748;13.452;2022-08-19T11:19:08;13.53;;;12.33;;
25331;SDS011;13284;52.748;13.452;2022-08-19T11:21:37;12.10;;;11.10;;
25331;SDS011;13284;52.748;13.452;2022-08-19T11:24:13;13.00;;;11.80;;
25331;SDS011;13284;52.748;13.452;2022-08-19T11:26:45;13.10;;;11.90;;
25331;SDS011;13284;52.748;13.452;2022-08-19T11:29:15;13.63;;;12.33;;
25331;SDS011;13284;52.748;13.452;2022-08-19T11:31:43;13.43;;;12.33;;
25331;SDS011;13284;52.748;13.452;2022-08-19T11:34:12;13.33;;;12.23;;
25331;SDS011;13284;52.748;13.452;2022-08-19T11:36:41;13.23;;;11.93;;
25331;SDS011;13284;52.748;13.452;2022-08-19T11:39:09;12.73;;;11.60;;
25331;SDS011;13284;52.748;13.452;2022-08-19T11:41:38;13.27;;;12.17;;
25331;SDS011;13284;52.748;13.452;2022-08-19T11:44:04;11.97;;;10.87;;
25331;SDS011;13284;52.748;13.452;2022-08-19T11:46:31;12.27;;;11.17;;
25331;SDS011;13284;52.748;13.452;2022-08-19T11:48:57;13.10;;;11.90;;
25331;SDS011;13284;52.748;13.452;2022-08-19T11:51:26;13.00;;;11.70;;
25331;SDS011;13284;52.748;13.452;2022-08-19T11:53:55;13.77;;;12.57;;
25331;SDS011;13284;52.748;13.452;2022-08-19T11:56:23;13.67;;;12.37;;
25331;SDS011;13284;52.748;13.452;2022-08-19T11:58:49;13.40;;;12.07;;
25331;SDS011;13284;52.748;13.452;2022-08-19T12:01:17;12.53;;;11.50;;
25331;SDS011;13284;52.748;13.452;2022-08-19T12:03:46;13.33;;;12.20;;
25331;SDS011;13284;52.748;13.452;2022-08-19T12:06:14;12.40;;;11.30;;
25331;SDS011;13284;52.748;13.452;2022-08-19T12:08:41;11.97;;;10.97;;
25331;SDS011;13284;52.748;13.452;2022-08-19T12:11:08;12.80;;;11.60;;
25331;SDS011;13284;52.748;13.452;2022-08-19T12:13:35;12.90;;;11.70;;
25331;SDS011;13284;52.748;13.452;2022-08-19T12:16:06;12.33;;;11.03;;
25331;SDS011;13284;52.748;13.452;2022-08-19T12:18:34;12.23;;;11.07;;
25331;SDS011;13284;52.748;13.452;2022-08-19T12:20:59;12.20;;;11.10;;
25331;SDS011;13284;52.748;13.452;2022-08-19T12:23:26;11.23;;;10.20;;
25331;SDS011;13284;52.748;13.452;2022-08-19T12:25:51;13.27;;;12.00;;
25331;SDS011;13284;52.748;13.452;2022-08-19T12:28:18;12.77;;;11.67;;
25331;SDS011;13284;52.748;13.452;2022-08-19T12:30:45;13.60;;;12.33;;
25331;SDS011;13284;52.748;13.452;2022-08-19T12:33:11;12.23;;;11.17;;
25331;SDS011;13284;52.748;13.452;2022-08-19T12:35:41;12.60;;;11.50;;
25331;SDS011;13284;52.748;13.452;2022-08-19T12:38:09;13.97;;;12.87;;
25331;SDS011;13284;52.748;13.452;2022-08-19T12:40:35;13.27;;;12.00;;
25331;SDS011;13284;52.748;13.452;2022-08-19T12:43:00;14.10;;;12.90;;
25331;SDS011;13284;52.748;13.452;2022-08-19T12:45:26;13.10;;;11.87;;
25331;SDS011;13284;52.748;13.452;2022-08-19T12:47:51;11.97;;;10.97;;
25331;SDS011;13284;52.748;13.452;2022-08-19T12:50:18;12.33;;;11.23;;
25331;SDS011;13284;52.748;13.452;2022-08-19T12:52:44;12.10;;;11.10;;
25331;SDS011;13284;52.748;13.452;2022-08-19T12:55:12;12.70;;;11.70;;
25331;SDS011;13284;52.748;13.452;2022-08-19T12:57:37;12.20;;;11.13;;
25331;SDS011;13284;52.748;13.452;2022-08-19T13:02:49;12.43;;;11.43;;
25331;SDS011;13284;52.748;13.452;2022-08-19T13:05:18;11.37;;;10.37;;
25331;SDS011;13284;52.748;13.452;2022-08-19T13:07:47;11.63;;;10.73;;
25331;SDS011;13284;52.748;13.452;2022-08-19T13:10:14;13.17;;;11.70;;
25331;SDS011;13284;52.748;13.452;2022-08-19T13:12:42;11.70;;;10.80;;
25331;SDS011;13284;52.748;13.452;2022-08-19T13:15:09;11.97;;;10.87;;
25331;SDS011;13284;52.748;13.452;2022-08-19T13:17:36;11.77;;;10.77;;
25331;SDS011;13284;52.748;13.452;2022-08-19T13:20:02;10.40;;;9.50;;
25331;SDS011;13284;52.748;13.452;2022-08-19T13:22:29;11.27;;;10.20;;
25331;SDS011;13284;52.748;13.452;2022-08-19T13:24:56;12.10;;;11.00;;
25331;SDS011;13284;52.748;13.452;2022-08-19T13:27:21;11.67;;;10.67;;
25331;SDS011;13284;52.748;13.452;2022-08-19T13:29:47;11.13;;;10.13;;
25331;SDS011;13284;52.748;13.452;2022-08-19T13:32:31;13.17;;;11.83;;
25331;SDS011;13284;52.748;13.452;2022-08-19T13:35:15;11.57;;;10.57;;
25331;SDS011;13284;52.748;13.452;2022-08-19T13:37:41;11.67;;;10.57;;
25331;SDS011;13284;52.748;13.452;2022-08-19T13:40:28;10.33;;;9.53;;
25331;SDS011;13284;52.748;13.452;2022-08-19T13:42:54;11.00;;;10.10;;
25331;SDS011;13284;52.748;13.452;2022-08-19T13:45:21;12.37;;;11.27;;
25331;SDS011;13284;52.748;13.452;2022-08-19T13:47:51;11.67;;;10.70;;
25331;SDS011;13284;52.748;13.452;2022-08-19T13:50:20;12.60;;;11.50;;
25331;SDS011;13284;52.748;13.452;2022-08-19T13:52:47;11.60;;;10.60;;
25331;SDS011;13284;52.748;13.452;2022-08-19T13:55:13;11.67;;;10.53;;
25331;SDS011;13284;52.748;13.452;2022-08-19T13:57:40;11.57;;;10.57;;
25331;SDS011;13284;52.748;13.452;2022-08-19T14:00:16;12.00;;;11.00;;
25331;SDS011;13284;52.748;13.452;2022-08-19T14:09:18;11.07;;;10.07;;
25331;SDS011;13284;52.748;13.452;2022-08-19T14:11:45;12.53;;;11.43;;
25331;SDS011;13284;52.748;13.452;2022-08-19T14:17:39;13.00;;;11.97;;
25331;SDS011;13284;52.748;13.452;2022-08-19T14:20:35;12.30;;;11.20;;
25331;SDS011;13284;52.748;13.452;2022-08-19T14:23:43;11.53;;;10.53;;
25331;SDS011;13284;52.748;13.452;2022-08-19T14:30:19;13.40;;;12.20;;
25331;SDS011;13284;52.748;13.452;2022-08-19T14:32:51;12.93;;;11.73;;
25331;SDS011;13284;52.748;13.452;2022-08-19T14:35:22;12.37;;;11.30;;
25331;SDS011;13284;52.748;13.452;2022-08-19T14:37:54;12.33;;;11.20;;
25331;SDS011;13284;52.748;13.452;2022-08-19T14:40:28;11.27;;;10.13;;
25331;SDS011;13284;52.748;13.452;2022-08-19T14:42:55;12.00;;;11.00;;